Etusivu
METAR-TAF:

METAR-TAF

Lentoasemat :

Charles Kirkconnellin kansainvälinen lentoasema

Cayman Brac, Caymansaaret

Leveyspiiri: 19-41-13N, Pituuspiiri: 079-52-58W, korkeus merenpinnasta: 2 m

Tämänhetkinen sää

Tämä raportti tehtiin 3 tuntia ja 50 minuuttia sitten, kello 00.00 UTC
Tuuli 2 kn idästä
Lämpötila 24°C
Kosteus 100%
Ilmanpaine 1014 hPa
Näkyvyys: 8000 m
Pilvistä 1400 ft:n korkeudessa, Cumulonimbus.
sadekuuroja näköpiirissä

METAR: MWCB 250000Z 10002KT 8000 VCSH OVC014CB 24/24 Q1014

Aika: 22:50 (03:50 UTC)

Sääennuste

Tämä raportti tehtiin 10 tuntia ja 50 minuuttia sitten, kello 17.00 UTC
Ennuste voimassa 24. päivästä klo 18 UTC - 25. päivään klo 18 UTC
Tuuli 15 kn idästä
Näkyvyys: 9000 m
Muutamia pilviä 1800 ft:n korkeudessa
Hajanaisia pilviä 3500 ft:n korkeudessa
vesikuuroja
Tulossa
25. päivästä klo 04 UTC - 25. päivään klo 06 UTC

TAF: MWCB 241700Z 2418/2518 08015KT 9000 SHRA FEW018 SCT035 BECMG 2504/2506 NSW

Säähavainnot ja -ennusteet yli 4000 lentoasemalta (METAR- ja TAF-raportit).

Käytössä olevat sääasemat on merkitty karttaan keltaisilla ja punaisilla pisteillä.

Aseta hiiri pisteen päälle nähdäksesi sääaseman nimen.

Klikkaa sitten nähdäksesi säähavainnot ja -ennusteet.

Kartan vaihtaminen: klikkaa mustalla rastilla varustettuja vihreitä pisteitä, niin voit zoomata sisään; viivalla varustettua vihreää pistettä, niin voit zoomata ulos tai vihreitä nuolia, niin pääset viereisille kartoille.


METAR-TAF: